sensor_id;sensor_type;location;lat;lon;timestamp;pressure;altitude;pressure_sealevel;temperature
72236;BMP280;60146;52.498;13.462;2023-04-29T00:02:15;100713.41;;;14.24
72236;BMP280;60146;52.498;13.462;2023-04-29T00:04:40;100714.16;;;14.16
72236;BMP280;60146;52.498;13.462;2023-04-29T00:07:06;100714.66;;;14.18
72236;BMP280;60146;52.498;13.462;2023-04-29T00:09:33;100703.31;;;14.18
72236;BMP280;60146;52.498;13.462;2023-04-29T00:11:58;100705.66;;;14.19
72236;BMP280;60146;52.498;13.462;2023-04-29T00:14:23;100692.81;;;14.26
72236;BMP280;60146;52.498;13.462;2023-04-29T00:16:49;100689.22;;;14.22
72236;BMP280;60146;52.498;13.462;2023-04-29T00:19:14;100690.91;;;14.18
72236;BMP280;60146;52.498;13.462;2023-04-29T00:21:40;100692.59;;;14.15
72236;BMP280;60146;52.498;13.462;2023-04-29T00:24:05;100672.59;;;14.14
72236;BMP280;60146;52.498;13.462;2023-04-29T00:26:31;100678.31;;;14.15
72236;BMP280;60146;52.498;13.462;2023-04-29T00:28:56;100671.63;;;14.10
72236;BMP280;60146;52.498;13.462;2023-04-29T00:31:21;100673.97;;;14.11
72236;BMP280;60146;52.498;13.462;2023-04-29T00:33:47;100687.00;;;14.08
72236;BMP280;60146;52.498;13.462;2023-04-29T00:36:13;100687.56;;;14.05
72236;BMP280;60146;52.498;13.462;2023-04-29T00:38:38;100678.72;;;14.01
72236;BMP280;60146;52.498;13.462;2023-04-29T00:41:03;100676.38;;;13.99
72236;BMP280;60146;52.498;13.462;2023-04-29T00:43:29;100685.19;;;13.95
72236;BMP280;60146;52.498;13.462;2023-04-29T00:46:00;100693.22;;;13.90
72236;BMP280;60146;52.498;13.462;2023-04-29T00:48:25;100687.47;;;13.88
72236;BMP280;60146;52.498;13.462;2023-04-29T00:50:51;100693.78;;;13.87
72236;BMP280;60146;52.498;13.462;2023-04-29T00:53:17;100679.56;;;13.88
72236;BMP280;60146;52.498;13.462;2023-04-29T00:55:43;100687.47;;;13.88
72236;BMP280;60146;52.498;13.462;2023-04-29T00:58:10;100694.06;;;13.99
72236;BMP280;60146;52.498;13.462;2023-04-29T01:00:36;100687.22;;;13.98
72236;BMP280;60146;52.498;13.462;2023-04-29T01:03:03;100690.34;;;14.00
72236;BMP280;60146;52.498;13.462;2023-04-29T01:05:29;100690.34;;;14.00
72236;BMP280;60146;52.498;13.462;2023-04-29T01:10:52;100697.75;;;13.98
72236;BMP280;60146;52.498;13.462;2023-04-29T01:13:45;100695.13;;;13.98
72236;BMP280;60146;52.498;13.462;2023-04-29T01:19:15;100668.59;;;13.95
72236;BMP280;60146;52.498;13.462;2023-04-29T01:21:48;100648.00;;;13.96
72236;BMP280;60146;52.498;13.462;2023-04-29T01:24:14;100652.31;;;13.93
72236;BMP280;60146;52.498;13.462;2023-04-29T01:26:45;100659.25;;;13.80
72236;BMP280;60146;52.498;13.462;2023-04-29T01:32:05;100678.16;;;13.61
72236;BMP280;60146;52.498;13.462;2023-04-29T01:34:48;100679.47;;;13.50
72236;BMP280;60146;52.498;13.462;2023-04-29T01:37:26;100695.72;;;13.52
72236;BMP280;60146;52.498;13.462;2023-04-29T01:40:04;100688.31;;;13.54
72236;BMP280;60146;52.498;13.462;2023-04-29T01:45:10;100680.16;;;13.42
72236;BMP280;60146;52.498;13.462;2023-04-29T01:47:39;100680.16;;;13.42
72236;BMP280;60146;52.498;13.462;2023-04-29T01:50:05;100680.16;;;13.42
72236;BMP280;60146;52.498;13.462;2023-04-29T01:52:31;100685.81;;;13.36
72236;BMP280;60146;52.498;13.462;2023-04-29T01:54:56;100686.13;;;13.35
72236;BMP280;60146;52.498;13.462;2023-04-29T01:57:21;100685.88;;;13.23
72236;BMP280;60146;52.498;13.462;2023-04-29T01:59:47;100687.44;;;13.11
72236;BMP280;60146;52.498;13.462;2023-04-29T02:02:12;100685.69;;;13.06
72236;BMP280;60146;52.498;13.462;2023-04-29T02:04:39;100689.41;;;13.05
72236;BMP280;60146;52.498;13.462;2023-04-29T02:07:05;100692.31;;;13.04
72236;BMP280;60146;52.498;13.462;2023-04-29T02:09:30;100697.41;;;13.00
72236;BMP280;60146;52.498;13.462;2023-04-29T02:11:55;100687.94;;;12.99
72236;BMP280;60146;52.498;13.462;2023-04-29T02:14:21;100681.72;;;13.09
72236;BMP280;60146;52.498;13.462;2023-04-29T02:16:49;100690.19;;;13.06
72236;BMP280;60146;52.498;13.462;2023-04-29T02:19:14;100676.25;;;13.05
72236;BMP280;60146;52.498;13.462;2023-04-29T02:21:43;100681.81;;;13.04
72236;BMP280;60146;52.498;13.462;2023-04-29T02:24:09;100685.69;;;13.06
72236;BMP280;60146;52.498;13.462;2023-04-29T02:26:35;100683.72;;;13.12
72236;BMP280;60146;52.498;13.462;2023-04-29T02:29:02;100677.13;;;13.14
72236;BMP280;60146;52.498;13.462;2023-04-29T02:31:28;100676.50;;;13.17
72236;BMP280;60146;52.498;13.462;2023-04-29T02:33:53;100671.88;;;13.14
72236;BMP280;60146;52.498;13.462;2023-04-29T02:36:18;100678.28;;;13.08
72236;BMP280;60146;52.498;13.462;2023-04-29T02:38:44;100669.44;;;13.04
72236;BMP280;60146;52.498;13.462;2023-04-29T02:41:09;100673.63;;;13.05
72236;BMP280;60146;52.498;13.462;2023-04-29T02:43:35;100672.16;;;12.99
72236;BMP280;60146;52.498;13.462;2023-04-29T02:46:01;100678.81;;;12.97
72236;BMP280;60146;52.498;13.462;2023-04-29T02:48:26;100688.22;;;12.98
72236;BMP280;60146;52.498;13.462;2023-04-29T02:50:51;100685.94;;;12.97
72236;BMP280;60146;52.498;13.462;2023-04-29T02:53:17;100680.47;;;12.93
72236;BMP280;60146;52.498;13.462;2023-04-29T02:55:42;100678.63;;;12.94
72236;BMP280;60146;52.498;13.462;2023-04-29T02:58:08;100681.25;;;12.94
72236;BMP280;60146;52.498;13.462;2023-04-29T03:00:33;100674.38;;;12.93
72236;BMP280;60146;52.498;13.462;2023-04-29T03:02:59;100681.78;;;12.91
72236;BMP280;60146;52.498;13.462;2023-04-29T03:05:24;100675.00;;;12.90
72236;BMP280;60146;52.498;13.462;2023-04-29T03:07:50;100682.81;;;12.95
72236;BMP280;60146;52.498;13.462;2023-04-29T03:10:16;100680.47;;;12.93
72236;BMP280;60146;52.498;13.462;2023-04-29T03:12:43;100683.97;;;12.89
72236;BMP280;60146;52.498;13.462;2023-04-29T03:15:08;100668.59;;;12.96
72236;BMP280;60146;52.498;13.462;2023-04-29T03:17:34;100672.44;;;12.98
72236;BMP280;60146;52.498;13.462;2023-04-29T03:20:00;100675.84;;;12.98
72236;BMP280;60146;52.498;13.462;2023-04-29T03:22:26;100676.19;;;12.97
72236;BMP280;60146;52.498;13.462;2023-04-29T03:24:51;100674.19;;;13.02
72236;BMP280;60146;52.498;13.462;2023-04-29T03:27:16;100669.44;;;13.04
72236;BMP280;60146;52.498;13.462;2023-04-29T03:29:42;100666.78;;;13.04
72236;BMP280;60146;52.498;13.462;2023-04-29T03:32:07;100665.59;;;13.10
72236;BMP280;60146;52.498;13.462;2023-04-29T03:34:32;100669.34;;;13.09
72236;BMP280;60146;52.498;13.462;2023-04-29T03:36:58;100669.69;;;13.16
72236;BMP280;60146;52.498;13.462;2023-04-29T03:39:23;100668.75;;;13.12
72236;BMP280;60146;52.498;13.462;2023-04-29T03:41:49;100672.63;;;13.15
72236;BMP280;60146;52.498;13.462;2023-04-29T03:44:15;100666.13;;;13.12
72236;BMP280;60146;52.498;13.462;2023-04-29T03:46:40;100666.97;;;13.21
72236;BMP280;60146;52.498;13.462;2023-04-29T03:49:05;100676.31;;;13.27
72236;BMP280;60146;52.498;13.462;2023-04-29T03:51:31;100663.94;;;13.27
72236;BMP280;60146;52.498;13.462;2023-04-29T03:53:57;100669.53;;;13.34
72236;BMP280;60146;52.498;13.462;2023-04-29T03:56:23;100652.09;;;13.38
72236;BMP280;60146;52.498;13.462;2023-04-29T03:58:50;100667.59;;;13.39
72236;BMP280;60146;52.498;13.462;2023-04-29T04:01:16;100664.22;;;13.47
72236;BMP280;60146;52.498;13.462;2023-04-29T04:03:41;100664.53;;;13.46
72236;BMP280;60146;52.498;13.462;2023-04-29T04:06:07;100671.56;;;13.50
72236;BMP280;60146;52.498;13.462;2023-04-29T04:08:32;100674.97;;;13.51
72236;BMP280;60146;52.498;13.462;2023-04-29T04:10:58;100669.09;;;13.54
72236;BMP280;60146;52.498;13.462;2023-04-29T04:13:28;100672.88;;;13.61
72236;BMP280;60146;52.498;13.462;2023-04-29T04:15:53;100671.44;;;13.55
72236;BMP280;60146;52.498;13.462;2023-04-29T04:18:18;100677.63;;;13.59
72236;BMP280;60146;52.498;13.462;2023-04-29T04:20:44;100684.75;;;13.58
72236;BMP280;60146;52.498;13.462;2023-04-29T04:23:09;100680.69;;;13.53
72236;BMP280;60146;52.498;13.462;2023-04-29T04:25:34;100673.44;;;13.58
72236;BMP280;60146;52.498;13.462;2023-04-29T04:28:00;100673.00;;;13.56
72236;BMP280;60146;52.498;13.462;2023-04-29T04:30:26;100675.50;;;13.61
72236;BMP280;60146;52.498;13.462;2023-04-29T04:32:51;100674.44;;;13.62
72236;BMP280;60146;52.498;13.462;2023-04-29T04:35:16;100675.56;;;13.69
72236;BMP280;60146;52.498;13.462;2023-04-29T04:37:42;100677.31;;;13.74
72236;BMP280;60146;52.498;13.462;2023-04-29T04:40:07;100675.97;;;13.84
72236;BMP280;60146;52.498;13.462;2023-04-29T04:42:33;100669.69;;;13.72
72236;BMP280;60146;52.498;13.462;2023-04-29T04:44:58;100674.66;;;13.74
72236;BMP280;60146;52.498;13.462;2023-04-29T04:47:24;100680.88;;;13.77
72236;BMP280;60146;52.498;13.462;2023-04-29T04:49:49;100675.59;;;13.77
72236;BMP280;60146;52.498;13.462;2023-04-29T04:52:19;100682.72;;;13.77
72236;BMP280;60146;52.498;13.462;2023-04-29T04:54:45;100687.00;;;13.86
72236;BMP280;60146;52.498;13.462;2023-04-29T04:57:10;100682.31;;;13.83
72236;BMP280;60146;52.498;13.462;2023-04-29T04:59:35;100680.88;;;13.77
72236;BMP280;60146;52.498;13.462;2023-04-29T05:02:01;100684.25;;;13.91
72236;BMP280;60146;52.498;13.462;2023-04-29T05:04:26;100683.47;;;13.91
72236;BMP280;60146;52.498;13.462;2023-04-29T05:06:51;100683.00;;;13.89
72236;BMP280;60146;52.498;13.462;2023-04-29T05:09:17;100693.78;;;13.87
72236;BMP280;60146;52.498;13.462;2023-04-29T05:11:42;100688.53;;;13.87
72236;BMP280;60146;52.498;13.462;2023-04-29T05:14:07;100699.44;;;13.94
72236;BMP280;60146;52.498;13.462;2023-04-29T05:16:33;100701.13;;;13.90
72236;BMP280;60146;52.498;13.462;2023-04-29T05:18:58;100700.75;;;13.83
72236;BMP280;60146;52.498;13.462;2023-04-29T05:21:23;100697.53;;;13.86
72236;BMP280;60146;52.498;13.462;2023-04-29T05:23:49;100696.19;;;13.76
72236;BMP280;60146;52.498;13.462;2023-04-29T05:26:14;100706.28;;;13.74
72236;BMP280;60146;52.498;13.462;2023-04-29T05:28:39;100705.81;;;13.72
72236;BMP280;60146;52.498;13.462;2023-04-29T05:31:05;100703.31;;;13.75
72236;BMP280;60146;52.498;13.462;2023-04-29T05:33:30;100711.22;;;13.75
72236;BMP280;60146;52.498;13.462;2023-04-29T05:35:55;100717.03;;;13.64
72236;BMP280;60146;52.498;13.462;2023-04-29T05:38:21;100712.94;;;13.58
72236;BMP280;60146;52.498;13.462;2023-04-29T05:40:52;100709.63;;;13.66
72236;BMP280;60146;52.498;13.462;2023-04-29T05:43:18;100713.56;;;13.76
72236;BMP280;60146;52.498;13.462;2023-04-29T05:45:45;100716.56;;;13.83
72236;BMP280;60146;52.498;13.462;2023-04-29T05:48:11;100715.78;;;13.83
72236;BMP280;60146;52.498;13.462;2023-04-29T05:50:36;100718.81;;;13.76
72236;BMP280;60146;52.498;13.462;2023-04-29T05:53:01;100715.13;;;13.77
72236;BMP280;60146;52.498;13.462;2023-04-29T05:55:27;100720.13;;;13.79
72236;BMP280;60146;52.498;13.462;2023-04-29T05:57:52;100713.09;;;13.75
72236;BMP280;60146;52.498;13.462;2023-04-29T06:00:17;100728.44;;;13.73
72236;BMP280;60146;52.498;13.462;2023-04-29T06:02:43;100726.16;;;13.79
72236;BMP280;60146;52.498;13.462;2023-04-29T06:05:10;100729.25;;;13.81
72236;BMP280;60146;52.498;13.462;2023-04-29T06:07:35;100727.88;;;13.84
72236;BMP280;60146;52.498;13.462;2023-04-29T06:10:01;100740.19;;;13.88
72236;BMP280;60146;52.498;13.462;2023-04-29T06:12:26;100738.84;;;13.99
72236;BMP280;60146;52.498;13.462;2023-04-29T06:14:51;100740.59;;;14.03
72236;BMP280;60146;52.498;13.462;2023-04-29T06:17:17;100734.34;;;13.99
72236;BMP280;60146;52.498;13.462;2023-04-29T06:19:42;100733.44;;;14.04
72236;BMP280;60146;52.498;13.462;2023-04-29T06:22:07;100737.78;;;14.00
72236;BMP280;60146;52.498;13.462;2023-04-29T06:24:32;100746.63;;;14.04
72236;BMP280;60146;52.498;13.462;2023-04-29T06:26:58;100742.66;;;14.15
72236;BMP280;60146;52.498;13.462;2023-04-29T06:29:23;100743.78;;;14.22
72236;BMP280;60146;52.498;13.462;2023-04-29T06:31:48;100751.25;;;14.20
72236;BMP280;60146;52.498;13.462;2023-04-29T06:34:14;100754.97;;;14.19
72236;BMP280;60146;52.498;13.462;2023-04-29T06:36:39;100751.91;;;14.25
72236;BMP280;60146;52.498;13.462;2023-04-29T06:39:05;100757.19;;;14.34
72236;BMP280;60146;52.498;13.462;2023-04-29T06:41:31;100749.94;;;14.39
72236;BMP280;60146;52.498;13.462;2023-04-29T06:43:56;100750.03;;;14.55
72236;BMP280;60146;52.498;13.462;2023-04-29T06:46:21;100760.72;;;14.51
72236;BMP280;60146;52.498;13.462;2023-04-29T06:48:47;100761.34;;;14.48
72236;BMP280;60146;52.498;13.462;2023-04-29T06:51:12;100755.31;;;14.55
72236;BMP280;60146;52.498;13.462;2023-04-29T06:53:37;100752.06;;;14.58
72236;BMP280;60146;52.498;13.462;2023-04-29T06:56:03;100769.13;;;14.61
72236;BMP280;60146;52.498;13.462;2023-04-29T06:58:29;100759.09;;;14.63
72236;BMP280;60146;52.498;13.462;2023-04-29T07:00:55;100767.94;;;14.67
72236;BMP280;60146;52.498;13.462;2023-04-29T07:03:20;100769.63;;;14.71
72236;BMP280;60146;52.498;13.462;2023-04-29T07:05:45;100766.75;;;14.81
72236;BMP280;60146;52.498;13.462;2023-04-29T07:08:12;100762.38;;;14.76
72236;BMP280;60146;52.498;13.462;2023-04-29T07:10:37;100762.53;;;14.80
72236;BMP280;60146;52.498;13.462;2023-04-29T07:13:03;100765.19;;;14.80
72236;BMP280;60146;52.498;13.462;2023-04-29T07:15:29;100765.84;;;14.85
72236;BMP280;60146;52.498;13.462;2023-04-29T07:17:55;100778.69;;;14.87
72236;BMP280;60146;52.498;13.462;2023-04-29T07:20:21;100776.41;;;14.85
72236;BMP280;60146;52.498;13.462;2023-04-29T07:22:46;100776.66;;;14.75
72236;BMP280;60146;52.498;13.462;2023-04-29T07:25:12;100774.19;;;14.79
72236;BMP280;60146;52.498;13.462;2023-04-29T07:27:38;100784.25;;;14.77
72236;BMP280;60146;52.498;13.462;2023-04-29T07:30:04;100783.53;;;14.85
72236;BMP280;60146;52.498;13.462;2023-04-29T07:32:30;100788.47;;;14.78
72236;BMP280;60146;52.498;13.462;2023-04-29T07:34:56;100785.53;;;14.79
72236;BMP280;60146;52.498;13.462;2023-04-29T07:37:21;100785.97;;;14.81
72236;BMP280;60146;52.498;13.462;2023-04-29T07:39:47;100800.75;;;14.82
72236;BMP280;60146;52.498;13.462;2023-04-29T07:42:12;100802.44;;;14.87
72236;BMP280;60146;52.498;13.462;2023-04-29T07:44:37;100796.31;;;14.91
72236;BMP280;60146;52.498;13.462;2023-04-29T07:47:03;100804.50;;;14.90
72236;BMP280;60146;52.498;13.462;2023-04-29T07:49:28;100807.88;;;14.82
72236;BMP280;60146;52.498;13.462;2023-04-29T07:51:54;100818.13;;;14.75
72236;BMP280;60146;52.498;13.462;2023-04-29T07:54:19;100809.25;;;14.79
72236;BMP280;60146;52.498;13.462;2023-04-29T07:56:46;100819.19;;;14.74
72236;BMP280;60146;52.498;13.462;2023-04-29T07:59:12;100824.97;;;14.84
72236;BMP280;60146;52.498;13.462;2023-04-29T08:01:37;100819.41;;;14.86
72236;BMP280;60146;52.498;13.462;2023-04-29T08:04:04;100831.97;;;14.89
72236;BMP280;60146;52.498;13.462;2023-04-29T08:06:30;100835.06;;;14.82
72236;BMP280;60146;52.498;13.462;2023-04-29T08:08:56;100842.03;;;14.87
72236;BMP280;60146;52.498;13.462;2023-04-29T08:11:21;100848.44;;;14.86
72236;BMP280;60146;52.498;13.462;2023-04-29T08:13:49;100845.00;;;14.85
72236;BMP280;60146;52.498;13.462;2023-04-29T08:16:14;100854.03;;;14.93
72236;BMP280;60146;52.498;13.462;2023-04-29T08:18:40;100859.16;;;14.97
72236;BMP280;60146;52.498;13.462;2023-04-29T08:21:05;100856.19;;;14.91
72236;BMP280;60146;52.498;13.462;2023-04-29T08:23:31;100861.94;;;14.93
72236;BMP280;60146;52.498;13.462;2023-04-29T08:25:57;100869.88;;;14.93
72236;BMP280;60146;52.498;13.462;2023-04-29T08:28:22;100874.34;;;14.84
72236;BMP280;60146;52.498;13.462;2023-04-29T08:30:47;100888.00;;;14.86
72236;BMP280;60146;52.498;13.462;2023-04-29T08:33:14;100886.38;;;14.76
72236;BMP280;60146;52.498;13.462;2023-04-29T08:35:40;100885.31;;;14.77
72236;BMP280;60146;52.498;13.462;2023-04-29T08:38:07;100901.00;;;14.74
72236;BMP280;60146;52.498;13.462;2023-04-29T08:40:41;100901.00;;;14.74
72236;BMP280;60146;52.498;13.462;2023-04-29T08:43:07;100912.31;;;14.75
72236;BMP280;60146;52.498;13.462;2023-04-29T08:45:34;100911.53;;;14.74
72236;BMP280;60146;52.498;13.462;2023-04-29T08:48:01;100916.94;;;14.69
72236;BMP280;60146;52.498;13.462;2023-04-29T08:50:29;100919.81;;;14.59
72236;BMP280;60146;52.498;13.462;2023-04-29T08:52:54;100914.53;;;14.59
72236;BMP280;60146;52.498;13.462;2023-04-29T08:55:20;100924.66;;;14.66
72236;BMP280;60146;52.498;13.462;2023-04-29T08:57:48;100925.09;;;14.59
72236;BMP280;60146;52.498;13.462;2023-04-29T09:00:14;100931.13;;;14.60
72236;BMP280;60146;52.498;13.462;2023-04-29T09:02:44;100937.16;;;14.60
72236;BMP280;60146;52.498;13.462;2023-04-29T09:05:10;100947.41;;;14.54
72236;BMP280;60146;52.498;13.462;2023-04-29T09:07:37;100946.28;;;14.55
72236;BMP280;60146;52.498;13.462;2023-04-29T09:10:08;100953.50;;;14.62
72236;BMP280;60146;52.498;13.462;2023-04-29T09:12:33;100948.63;;;14.56
72236;BMP280;60146;52.498;13.462;2023-04-29T09:15:00;100966.66;;;14.41
72236;BMP280;60146;52.498;13.462;2023-04-29T09:17:43;100961.53;;;14.36
72236;BMP280;60146;52.498;13.462;2023-04-29T09:22:54;100978.13;;;14.36
72236;BMP280;60146;52.498;13.462;2023-04-29T09:25:21;100971.84;;;14.33
72236;BMP280;60146;52.498;13.462;2023-04-29T09:27:46;100976.94;;;14.29
72236;BMP280;60146;52.498;13.462;2023-04-29T09:30:12;100983.78;;;14.30
72236;BMP280;60146;52.498;13.462;2023-04-29T09:32:38;100990.22;;;14.24
72236;BMP280;60146;52.498;13.462;2023-04-29T09:35:24;100990.91;;;14.30
72236;BMP280;60146;52.498;13.462;2023-04-29T09:37:50;100990.63;;;14.31
72236;BMP280;60146;52.498;13.462;2023-04-29T09:40:31;100997.75;;;14.31
72236;BMP280;60146;52.498;13.462;2023-04-29T09:42:58;101002.94;;;14.22
72236;BMP280;60146;52.498;13.462;2023-04-29T09:45:36;101008.59;;;14.29
72236;BMP280;60146;52.498;13.462;2023-04-29T09:48:05;101013.69;;;14.13
72236;BMP280;60146;52.498;13.462;2023-04-29T09:50:32;101018.34;;;14.15
72236;BMP280;60146;52.498;13.462;2023-04-29T09:52:58;101016.81;;;14.15
72236;BMP280;60146;52.498;13.462;2023-04-29T09:55:24;101023.63;;;14.15
72236;BMP280;60146;52.498;13.462;2023-04-29T09:57:51;101027.75;;;14.08
72236;BMP280;60146;52.498;13.462;2023-04-29T10:00:17;101037.41;;;14.13
72236;BMP280;60146;52.498;13.462;2023-04-29T10:02:45;101038.47;;;14.12
72236;BMP280;60146;52.498;13.462;2023-04-29T10:05:13;101038.50;;;13.98
72236;BMP280;60146;52.498;13.462;2023-04-29T10:07:38;101050.47;;;14.04
72236;BMP280;60146;52.498;13.462;2023-04-29T10:10:05;101058.88;;;13.93
72236;BMP280;60146;52.498;13.462;2023-04-29T10:12:34;101046.19;;;13.95
72236;BMP280;60146;52.498;13.462;2023-04-29T10:15:10;101055.75;;;14.04
72236;BMP280;60146;52.498;13.462;2023-04-29T10:17:45;101063.00;;;14.12
72236;BMP280;60146;52.498;13.462;2023-04-29T10:20:13;101059.34;;;14.21
72236;BMP280;60146;52.498;13.462;2023-04-29T10:22:46;101066.19;;;14.22
72236;BMP280;60146;52.498;13.462;2023-04-29T10:25:14;101075.09;;;14.26
72236;BMP280;60146;52.498;13.462;2023-04-29T10:27:42;101065.13;;;14.23
72236;BMP280;60146;52.498;13.462;2023-04-29T10:30:11;101067.19;;;14.26
72236;BMP280;60146;52.498;13.462;2023-04-29T10:32:39;101063.28;;;14.37
72236;BMP280;60146;52.498;13.462;2023-04-29T10:35:09;101070.28;;;14.41
72236;BMP280;60146;52.498;13.462;2023-04-29T10:37:36;101068.91;;;14.44
72236;BMP280;60146;52.498;13.462;2023-04-29T10:42:50;101074.06;;;14.62
72236;BMP280;60146;52.498;13.462;2023-04-29T10:45:21;101076.00;;;14.70
72236;BMP280;60146;52.498;13.462;2023-04-29T10:50:34;101077.22;;;14.64
72236;BMP280;60146;52.498;13.462;2023-04-29T10:53:04;101077.38;;;14.67
72236;BMP280;60146;52.498;13.462;2023-04-29T10:55:30;101081.09;;;14.66
72236;BMP280;60146;52.498;13.462;2023-04-29T10:57:56;101085.06;;;14.77
72236;BMP280;60146;52.498;13.462;2023-04-29T11:00:25;101092.53;;;14.75
72236;BMP280;60146;52.498;13.462;2023-04-29T11:02:52;101093.59;;;14.74
72236;BMP280;60146;52.498;13.462;2023-04-29T11:05:29;101093.66;;;14.82
72236;BMP280;60146;52.498;13.462;2023-04-29T11:10:36;101102.13;;;14.93
72236;BMP280;60146;52.498;13.462;2023-04-29T11:18:28;101095.69;;;15.41
72236;BMP280;60146;52.498;13.462;2023-04-29T11:23:28;101099.00;;;15.76
72236;BMP280;60146;52.498;13.462;2023-04-29T11:25:54;101106.34;;;15.88
72236;BMP280;60146;52.498;13.462;2023-04-29T11:28:19;101104.97;;;15.90
72236;BMP280;60146;52.498;13.462;2023-04-29T11:30:46;101113.22;;;15.97
72236;BMP280;60146;52.498;13.462;2023-04-29T11:33:12;101098.16;;;15.97
72236;BMP280;60146;52.498;13.462;2023-04-29T11:35:38;101114.03;;;16.06
72236;BMP280;60146;52.498;13.462;2023-04-29T11:38:04;101118.34;;;15.93
72236;BMP280;60146;52.498;13.462;2023-04-29T11:40:31;101122.31;;;16.12
72236;BMP280;60146;52.498;13.462;2023-04-29T11:42:56;101108.38;;;16.37
72236;BMP280;60146;52.498;13.462;2023-04-29T11:45:22;101123.06;;;16.59
72236;BMP280;60146;52.498;13.462;2023-04-29T11:47:48;101125.28;;;16.99
72236;BMP280;60146;52.498;13.462;2023-04-29T11:50:15;101124.88;;;17.50
72236;BMP280;60146;52.498;13.462;2023-04-29T11:52:45;101125.47;;;17.63
72236;BMP280;60146;52.498;13.462;2023-04-29T11:55:11;101124.53;;;17.68
72236;BMP280;60146;52.498;13.462;2023-04-29T11:57:37;101128.75;;;17.61
72236;BMP280;60146;52.498;13.462;2023-04-29T12:00:03;101121.44;;;17.58
72236;BMP280;60146;52.498;13.462;2023-04-29T12:02:30;101135.97;;;17.52
72236;BMP280;60146;52.498;13.462;2023-04-29T12:04:56;101136.41;;;17.54
72236;BMP280;60146;52.498;13.462;2023-04-29T12:07:22;101122.91;;;17.39
72236;BMP280;60146;52.498;13.462;2023-04-29T12:09:47;101141.56;;;17.50
72236;BMP280;60146;52.498;13.462;2023-04-29T12:12:13;101139.22;;;17.65
72236;BMP280;60146;52.498;13.462;2023-04-29T12:14:40;101143.91;;;17.52
72236;BMP280;60146;52.498;13.462;2023-04-29T12:17:06;101152.31;;;17.54
72236;BMP280;60146;52.498;13.462;2023-04-29T12:19:34;101146.13;;;17.33
72236;BMP280;60146;52.498;13.462;2023-04-29T12:22:03;101143.19;;;17.18
72236;BMP280;60146;52.498;13.462;2023-04-29T12:24:32;101148.16;;;16.95
72236;BMP280;60146;52.498;13.462;2023-04-29T12:26:59;101140.69;;;16.80
72236;BMP280;60146;52.498;13.462;2023-04-29T12:29:25;101148.28;;;16.65
72236;BMP280;60146;52.498;13.462;2023-04-29T12:31:50;101137.22;;;16.55
72236;BMP280;60146;52.498;13.462;2023-04-29T12:34:16;101150.13;;;16.48
72236;BMP280;60146;52.498;13.462;2023-04-29T12:36:43;101149.06;;;16.57
72236;BMP280;60146;52.498;13.462;2023-04-29T12:39:09;101161.38;;;16.70
72236;BMP280;60146;52.498;13.462;2023-04-29T12:41:41;101163.59;;;16.85
72236;BMP280;60146;52.498;13.462;2023-04-29T12:44:07;101166.09;;;17.06
72236;BMP280;60146;52.498;13.462;2023-04-29T12:46:39;101161.09;;;16.96
72236;BMP280;60146;52.498;13.462;2023-04-29T12:49:05;101163.59;;;17.18
72236;BMP280;60146;52.498;13.462;2023-04-29T12:51:34;101161.44;;;17.20
72236;BMP280;60146;52.498;13.462;2023-04-29T12:54:03;101162.31;;;17.40
72236;BMP280;60146;52.498;13.462;2023-04-29T12:56:30;101171.38;;;17.39
72236;BMP280;60146;52.498;13.462;2023-04-29T12:58:56;101167.94;;;17.47
72236;BMP280;60146;52.498;13.462;2023-04-29T13:01:28;101175.13;;;17.46
72236;BMP280;60146;52.498;13.462;2023-04-29T13:03:54;101175.41;;;17.62
72236;BMP280;60146;52.498;13.462;2023-04-29T13:06:19;101172.22;;;17.76
72236;BMP280;60146;52.498;13.462;2023-04-29T13:08:44;101163.63;;;17.87
72236;BMP280;60146;52.498;13.462;2023-04-29T13:11:10;101168.88;;;18.04
72236;BMP280;60146;52.498;13.462;2023-04-29T13:13:37;101165.47;;;18.32
72236;BMP280;60146;52.498;13.462;2023-04-29T13:16:03;101171.94;;;18.42
72236;BMP280;60146;52.498;13.462;2023-04-29T13:18:28;101177.34;;;18.54
72236;BMP280;60146;52.498;13.462;2023-04-29T13:20:53;101179.22;;;18.54
72236;BMP280;60146;52.498;13.462;2023-04-29T13:23:19;101173.06;;;18.61
72236;BMP280;60146;52.498;13.462;2023-04-29T13:25:45;101185.69;;;18.64
72236;BMP280;60146;52.498;13.462;2023-04-29T13:28:10;101171.03;;;18.87
72236;BMP280;60146;52.498;13.462;2023-04-29T13:30:36;101177.84;;;18.96
72236;BMP280;60146;52.498;13.462;2023-04-29T13:33:01;101182.09;;;18.89
72236;BMP280;60146;52.498;13.462;2023-04-29T13:35:26;101192.19;;;18.95
72236;BMP280;60146;52.498;13.462;2023-04-29T13:37:52;101182.47;;;18.99
72236;BMP280;60146;52.498;13.462;2023-04-29T13:40:17;101189.66;;;19.18
72236;BMP280;60146;52.498;13.462;2023-04-29T13:42:42;101189.13;;;19.25
72236;BMP280;60146;52.498;13.462;2023-04-29T13:45:08;101187.88;;;19.22
72236;BMP280;60146;52.498;13.462;2023-04-29T13:47:35;101200.22;;;19.07
72236;BMP280;60146;52.498;13.462;2023-04-29T13:50:00;101188.53;;;19.19
72236;BMP280;60146;52.498;13.462;2023-04-29T13:52:26;101200.63;;;19.17
72236;BMP280;60146;52.498;13.462;2023-04-29T13:54:54;101186.78;;;19.23
72236;BMP280;60146;52.498;13.462;2023-04-29T13:57:20;101188.81;;;19.26
72236;BMP280;60146;52.498;13.462;2023-04-29T13:59:51;101190.28;;;19.35
72236;BMP280;60146;52.498;13.462;2023-04-29T14:02:19;101198.09;;;19.32
72236;BMP280;60146;52.498;13.462;2023-04-29T14:04:44;101200.72;;;19.20
72236;BMP280;60146;52.498;13.462;2023-04-29T14:07:09;101198.19;;;19.24
72236;BMP280;60146;52.498;13.462;2023-04-29T14:09:35;101203.81;;;19.22
72236;BMP280;60146;52.498;13.462;2023-04-29T14:12:00;101204.13;;;19.09